Terminal Aerodrome Forecast
Issued by NWS Cleveland, OH

Current Version | Previous Version | Text Only | Print | Product List | Glossary On
Versions: 1 2 3 4 5 6 7 8 9 10 11 12 13 14 15
000
FTUS41 KCLE 042300
TAFMFD
TAF
KMFD 042326Z 0500/0524 25006KT P6SM BKN045 BKN080
     FM051200 VRB04KT 5SM -SHRA BR OVC025
      TEMPO 0512/0515 BKN010 OVC025=

USA.gov is the U.S. government's official web portal to all federal, state and local government web resources and services.